createdAt,value
2017-12-10T00:00:04.642Z,21.24
2017-12-10T00:01:04.645Z,21.28
2017-12-10T00:02:04.644Z,21.28
2017-12-10T00:03:04.645Z,21.25
2017-12-10T00:04:04.647Z,21.24
2017-12-10T00:05:04.653Z,21.27
2017-12-10T00:06:04.647Z,21.25
2017-12-10T00:07:04.651Z,21.24
2017-12-10T00:08:04.652Z,21.27
2017-12-10T00:09:04.653Z,21.28
2017-12-10T00:10:04.652Z,21.28
2017-12-10T00:11:04.656Z,21.25
2017-12-10T00:12:04.662Z,21.21
2017-12-10T00:13:04.659Z,21.27
2017-12-10T00:14:04.660Z,21.27
2017-12-10T00:15:04.661Z,21.27
2017-12-10T00:16:04.663Z,21.22
2017-12-10T00:17:04.676Z,21.21
2017-12-10T00:18:04.665Z,21.27
2017-12-10T00:19:04.666Z,21.25
2017-12-10T00:20:04.688Z,21.25
2017-12-10T00:21:04.670Z,21.28
2017-12-10T00:22:04.670Z,21.28
2017-12-10T00:23:04.679Z,21.27
2017-12-10T00:24:04.674Z,21.19
2017-12-10T00:25:04.673Z,21.22
2017-12-10T00:26:04.675Z,21.24
2017-12-10T00:27:04.677Z,21.19
2017-12-10T00:28:04.679Z,21.24
2017-12-10T00:29:04.679Z,21.19
2017-12-10T00:30:04.682Z,21.22
2017-12-10T00:31:04.682Z,21.24
2017-12-10T00:32:04.686Z,21.24
2017-12-10T00:33:04.684Z,21.25
2017-12-10T00:34:04.687Z,21.21
2017-12-10T00:35:04.688Z,21.10
2017-12-10T00:36:04.709Z,21.16
2017-12-10T00:37:04.690Z,21.14
2017-12-10T00:38:04.691Z,21.14
2017-12-10T00:39:04.693Z,21.19
2017-12-10T00:40:04.698Z,21.24
2017-12-10T00:41:04.693Z,21.21
2017-12-10T00:42:04.696Z,21.17
2017-12-10T00:43:04.698Z,21.22
2017-12-10T00:44:04.697Z,21.16
2017-12-10T00:45:04.701Z,21.17
2017-12-10T00:46:04.704Z,21.16
2017-12-10T00:47:04.701Z,21.19
2017-12-10T00:48:04.705Z,21.16
2017-12-10T00:49:04.704Z,21.14
2017-12-10T00:50:04.746Z,21.17
2017-12-10T00:51:04.715Z,21.13
2017-12-10T00:52:04.710Z,21.16
2017-12-10T00:53:04.717Z,21.14
2017-12-10T00:54:04.712Z,21.22
2017-12-10T00:55:04.722Z,21.17
2017-12-10T00:56:04.714Z,21.17
2017-12-10T00:57:04.716Z,21.14
2017-12-10T00:58:04.731Z,21.16
2017-12-10T00:59:04.720Z,21.16
2017-12-10T01:00:04.721Z,21.16
2017-12-10T01:01:04.722Z,21.21
2017-12-10T01:02:04.721Z,21.14
2017-12-10T01:03:04.723Z,21.12
2017-12-10T01:04:04.725Z,21.17
2017-12-10T01:05:04.726Z,21.17
2017-12-10T01:06:04.727Z,21.12
2017-12-10T01:07:04.729Z,21.17
2017-12-10T01:08:04.731Z,21.14
2017-12-10T01:09:04.732Z,21.16
2017-12-10T01:10:04.734Z,21.21
2017-12-10T01:11:04.735Z,21.16
2017-12-10T01:12:04.735Z,21.10
2017-12-10T01:13:04.737Z,21.16
2017-12-10T01:14:04.737Z,21.19
2017-12-10T01:15:04.739Z,21.21
2017-12-10T01:16:04.740Z,21.19
2017-12-10T01:17:04.742Z,21.17
2017-12-10T01:18:04.742Z,21.17
2017-12-10T01:19:04.744Z,21.16
2017-12-10T01:20:04.746Z,21.07
2017-12-10T01:21:04.748Z,21.19
2017-12-10T01:22:04.748Z,21.16
2017-12-10T01:23:04.749Z,21.14
2017-12-10T01:24:04.753Z,21.16
2017-12-10T01:25:04.752Z,21.14
2017-12-10T01:26:04.752Z,21.16
2017-12-10T01:27:04.754Z,21.16
2017-12-10T01:28:04.756Z,21.19
2017-12-10T01:29:04.757Z,21.17
2017-12-10T01:30:04.758Z,21.16
2017-12-10T01:31:04.759Z,21.19
2017-12-10T01:32:04.761Z,21.10
2017-12-10T01:33:04.762Z,21.13
2017-12-10T01:34:04.763Z,21.14
2017-12-10T01:35:04.768Z,21.21
2017-12-10T01:36:04.766Z,21.17
2017-12-10T01:37:04.768Z,21.17
2017-12-10T01:38:04.768Z,21.14
2017-12-10T01:39:04.770Z,21.10
2017-12-10T01:40:04.771Z,21.09
2017-12-10T01:41:04.773Z,21.09
2017-12-10T01:42:04.774Z,21.13
2017-12-10T01:43:04.775Z,21.09
2017-12-10T01:44:04.776Z,21.10
2017-12-10T01:45:04.778Z,21.10
2017-12-10T01:46:04.779Z,21.10
2017-12-10T01:47:04.782Z,21.10
2017-12-10T01:48:04.785Z,21.14
2017-12-10T01:49:04.782Z,21.14
2017-12-10T01:50:04.823Z,21.06
2017-12-10T01:51:04.784Z,21.12
2017-12-10T01:52:04.786Z,21.09
2017-12-10T01:53:04.788Z,20.99
2017-12-10T01:54:04.788Z,21.12
2017-12-10T01:55:04.790Z,21.14
2017-12-10T01:56:04.791Z,21.10
2017-12-10T01:57:04.792Z,21.07
2017-12-10T01:58:04.793Z,21.12
2017-12-10T01:59:04.794Z,21.09
2017-12-10T02:00:04.802Z,21.06
2017-12-10T02:01:04.797Z,21.09
2017-12-10T02:02:04.797Z,21.09
2017-12-10T02:03:04.799Z,21.09
2017-12-10T02:04:04.801Z,21.14
2017-12-10T02:05:04.802Z,21.09
2017-12-10T02:06:04.803Z,21.09
2017-12-10T02:07:04.805Z,21.06
2017-12-10T02:08:04.806Z,21.12
2017-12-10T02:09:04.808Z,21.04
2017-12-10T02:10:04.808Z,21.04
2017-12-10T02:11:04.809Z,21.06
2017-12-10T02:12:04.811Z,21.10
2017-12-10T02:13:04.812Z,21.12
2017-12-10T02:14:04.811Z,21.10
2017-12-10T02:15:04.848Z,21.04
2017-12-10T02:16:04.816Z,21.06
2017-12-10T02:17:04.818Z,21.07
2017-12-10T02:18:04.818Z,21.06
2017-12-10T02:19:04.819Z,21.04
2017-12-10T02:20:04.821Z,21.09
2017-12-10T02:21:04.871Z,21.12
2017-12-10T02:22:04.823Z,21.09
2017-12-10T02:23:04.825Z,21.06
2017-12-10T02:24:04.826Z,21.06
2017-12-10T02:25:04.837Z,21.03
2017-12-10T02:26:04.829Z,21.07
2017-12-10T02:27:04.829Z,21.07
2017-12-10T02:28:04.831Z,21.07
2017-12-10T02:29:04.832Z,21.06
2017-12-10T02:30:04.833Z,20.95
2017-12-10T02:31:04.836Z,21.04
2017-12-10T02:32:04.836Z,20.99
2017-12-10T02:33:04.839Z,21.01
2017-12-10T02:34:04.838Z,20.99
2017-12-10T02:35:04.841Z,21.03
2017-12-10T02:36:04.863Z,20.94
2017-12-10T02:37:04.842Z,21.04
2017-12-10T02:38:04.843Z,20.92
2017-12-10T02:39:04.844Z,21.01
2017-12-10T02:40:04.845Z,21.03
2017-12-10T02:41:04.847Z,21.01
2017-12-10T02:42:04.847Z,21.01
2017-12-10T02:43:04.850Z,21.01
2017-12-10T02:44:04.850Z,20.97
2017-12-10T02:45:04.857Z,21.03
2017-12-10T02:46:04.852Z,21.01
2017-12-10T02:47:04.853Z,21.06
2017-12-10T02:48:04.855Z,20.92
2017-12-10T02:49:04.856Z,20.94
2017-12-10T02:50:04.857Z,20.99
2017-12-10T02:51:04.858Z,20.98
2017-12-10T02:52:04.860Z,20.95
2017-12-10T02:53:04.861Z,20.99
2017-12-10T02:54:04.861Z,20.94
2017-12-10T02:55:04.864Z,21.03
2017-12-10T02:56:04.865Z,20.98
2017-12-10T02:57:04.863Z,20.98
2017-12-10T02:58:04.866Z,20.98
2017-12-10T02:59:04.868Z,21.06
2017-12-10T03:00:04.869Z,20.97
2017-12-10T03:01:04.870Z,20.92
2017-12-10T03:02:04.870Z,21.09
2017-12-10T03:03:04.873Z,21.07
2017-12-10T03:04:04.874Z,20.97
2017-12-10T03:05:04.876Z,20.95
2017-12-10T03:06:04.880Z,20.97
2017-12-10T03:07:04.878Z,20.99
2017-12-10T03:08:04.878Z,21.01
2017-12-10T03:09:04.881Z,21.03
2017-12-10T03:10:04.881Z,21.01
2017-12-10T03:11:04.902Z,20.98
2017-12-10T03:12:04.884Z,20.99
2017-12-10T03:13:04.885Z,20.97
2017-12-10T03:14:04.885Z,20.95
2017-12-10T03:15:04.887Z,20.99
2017-12-10T03:16:04.941Z,20.94
2017-12-10T03:17:04.889Z,21.01
2017-12-10T03:18:04.890Z,20.99
2017-12-10T03:19:04.891Z,20.97
2017-12-10T03:20:04.892Z,20.98
2017-12-10T03:21:04.894Z,20.98
2017-12-10T03:22:04.895Z,20.97
2017-12-10T03:23:04.896Z,20.98
2017-12-10T03:24:04.902Z,21.01
2017-12-10T03:25:04.922Z,21.01
2017-12-10T03:26:04.901Z,20.95
2017-12-10T03:27:04.902Z,20.94
2017-12-10T03:28:04.902Z,20.97
2017-12-10T03:29:04.903Z,20.98
2017-12-10T03:30:04.929Z,21.09
2017-12-10T03:31:04.906Z,20.94
2017-12-10T03:32:04.906Z,20.98
2017-12-10T03:33:04.908Z,20.99
2017-12-10T03:34:04.908Z,20.95
2017-12-10T03:35:04.911Z,20.97
2017-12-10T03:36:04.945Z,20.91
2017-12-10T03:37:04.913Z,20.97
2017-12-10T03:38:04.913Z,20.95
2017-12-10T03:39:04.915Z,20.94
2017-12-10T03:40:04.935Z,20.97
2017-12-10T03:41:04.919Z,20.97
2017-12-10T03:42:04.918Z,20.94
2017-12-10T03:43:04.919Z,20.97
2017-12-10T03:44:04.924Z,20.99
2017-12-10T03:45:04.933Z,20.92
2017-12-10T03:46:04.923Z,20.95
2017-12-10T03:47:04.924Z,20.91
2017-12-10T03:48:04.936Z,20.95
2017-12-10T03:49:04.927Z,20.94
2017-12-10T03:50:04.927Z,20.94
2017-12-10T03:51:04.929Z,21.01
2017-12-10T03:52:04.930Z,20.94
2017-12-10T03:53:04.933Z,20.89
2017-12-10T03:54:04.932Z,20.89
2017-12-10T03:55:04.933Z,20.94
2017-12-10T03:56:04.942Z,20.99
2017-12-10T03:57:04.939Z,20.91
2017-12-10T03:58:04.949Z,20.97
2017-12-10T03:59:04.939Z,20.95
2017-12-10T04:00:04.940Z,20.99
2017-12-10T04:01:04.941Z,20.92
2017-12-10T04:02:04.941Z,20.94
2017-12-10T04:03:04.944Z,20.97
2017-12-10T04:04:04.942Z,20.95
2017-12-10T04:05:05.026Z,20.94
2017-12-10T04:06:04.955Z,20.92
2017-12-10T04:07:04.976Z,20.91
2017-12-10T04:08:04.949Z,20.95
2017-12-10T04:09:04.948Z,20.95
2017-12-10T04:10:04.962Z,20.94
2017-12-10T04:11:04.954Z,20.97
2017-12-10T04:12:04.953Z,20.92
2017-12-10T04:13:04.955Z,20.91
2017-12-10T04:14:04.955Z,20.97
2017-12-10T04:15:04.957Z,20.98
2017-12-10T04:16:04.958Z,20.92
2017-12-10T04:17:04.959Z,20.94
2017-12-10T04:18:04.959Z,20.97
2017-12-10T04:19:04.961Z,20.94
2017-12-10T04:20:04.966Z,21.01
2017-12-10T04:21:04.964Z,20.98
2017-12-10T04:22:04.965Z,20.98
2017-12-10T04:23:04.966Z,20.98
2017-12-10T04:24:04.967Z,20.97
2017-12-10T04:25:04.990Z,20.98
2017-12-10T04:26:04.969Z,20.98
2017-12-10T04:27:04.969Z,20.98
2017-12-10T04:28:04.970Z,21.01
2017-12-10T04:29:04.973Z,20.94
2017-12-10T04:30:04.974Z,20.92
2017-12-10T04:31:04.976Z,21.07
2017-12-10T04:32:04.976Z,20.92
2017-12-10T04:33:04.977Z,21.04
2017-12-10T04:34:04.978Z,21.09
2017-12-10T04:35:04.978Z,21.01
2017-12-10T04:36:04.985Z,20.95
2017-12-10T04:37:04.983Z,21.03
2017-12-10T04:38:04.983Z,21.06
2017-12-10T04:39:04.984Z,21.09
2017-12-10T04:40:04.986Z,20.94
2017-12-10T04:41:04.987Z,21.09
2017-12-10T04:42:04.987Z,21.03
2017-12-10T04:43:04.989Z,21.12
2017-12-10T04:44:04.991Z,21.06
2017-12-10T04:45:05.015Z,21.04
2017-12-10T04:46:04.993Z,21.07
2017-12-10T04:47:04.994Z,21.09
2017-12-10T04:48:04.995Z,21.07
2017-12-10T04:49:04.997Z,21.03
2017-12-10T04:50:04.996Z,21.04
2017-12-10T04:51:05.035Z,21.10
2017-12-10T04:52:05.000Z,21.04
2017-12-10T04:53:05.001Z,21.09
2017-12-10T04:54:05.002Z,21.10
2017-12-10T04:55:05.003Z,21.07
2017-12-10T04:56:05.005Z,21.06
2017-12-10T04:57:05.032Z,21.07
2017-12-10T04:58:05.007Z,21.13
2017-12-10T04:59:05.009Z,21.09
2017-12-10T05:00:05.010Z,21.12
2017-12-10T05:01:05.013Z,21.10
2017-12-10T05:02:05.012Z,21.09
2017-12-10T05:03:05.015Z,21.10
2017-12-10T05:04:05.014Z,21.14
2017-12-10T05:05:05.015Z,21.13
2017-12-10T05:06:05.063Z,21.16
2017-12-10T05:07:05.018Z,21.14
2017-12-10T05:08:05.019Z,21.07
2017-12-10T05:09:05.021Z,21.19
2017-12-10T05:10:05.021Z,21.14
2017-12-10T05:11:05.040Z,21.14
2017-12-10T05:12:05.024Z,21.21
2017-12-10T05:13:05.025Z,21.14
2017-12-10T05:14:05.026Z,21.19
2017-12-10T05:15:05.028Z,21.12
2017-12-10T05:16:05.028Z,21.16
2017-12-10T05:17:05.029Z,21.14
2017-12-10T05:18:05.031Z,21.24
2017-12-10T05:19:05.032Z,21.17
2017-12-10T05:20:05.034Z,21.22
2017-12-10T05:21:05.035Z,21.25
2017-12-10T05:22:05.036Z,21.16
2017-12-10T05:23:05.037Z,21.16
2017-12-10T05:24:05.039Z,21.21
2017-12-10T05:25:05.040Z,21.19
2017-12-10T05:26:05.041Z,21.22
2017-12-10T05:27:05.042Z,21.19
2017-12-10T05:28:05.045Z,21.21
2017-12-10T05:29:05.047Z,21.21
2017-12-10T05:30:05.060Z,21.24
2017-12-10T05:31:05.049Z,21.19
2017-12-10T05:32:05.049Z,21.25
2017-12-10T05:33:05.050Z,21.28
2017-12-10T05:34:05.051Z,21.25
2017-12-10T05:35:05.053Z,21.19
2017-12-10T05:36:05.054Z,21.27
2017-12-10T05:37:05.055Z,21.19
2017-12-10T05:38:05.056Z,21.25
2017-12-10T05:39:05.057Z,21.28
2017-12-10T05:40:05.059Z,21.22
2017-12-10T05:41:05.060Z,21.22
2017-12-10T05:42:05.061Z,21.28
2017-12-10T05:43:05.062Z,21.27
2017-12-10T05:44:05.062Z,21.25
2017-12-10T05:45:05.066Z,21.25
2017-12-10T05:46:05.066Z,21.25
2017-12-10T05:47:05.067Z,21.24
2017-12-10T05:48:05.068Z,21.21
2017-12-10T05:49:05.070Z,21.22
2017-12-10T05:50:05.119Z,21.29
2017-12-10T05:51:05.084Z,21.28
2017-12-10T05:52:05.074Z,21.24
2017-12-10T05:53:05.075Z,21.25
2017-12-10T05:54:05.076Z,21.29
2017-12-10T05:55:05.078Z,21.22
2017-12-10T05:56:05.078Z,21.27
2017-12-10T05:57:05.081Z,21.25
2017-12-10T05:58:05.081Z,21.31
2017-12-10T05:59:05.082Z,21.22
2017-12-10T06:00:05.084Z,21.28
2017-12-10T06:01:05.085Z,21.21
2017-12-10T06:02:05.086Z,21.29
2017-12-10T06:03:05.088Z,21.28
2017-12-10T06:04:05.096Z,21.31
2017-12-10T06:05:05.089Z,21.19
2017-12-10T06:06:05.142Z,21.22
2017-12-10T06:07:05.093Z,21.24
2017-12-10T06:08:05.094Z,21.31
2017-12-10T06:09:05.095Z,21.38
2017-12-10T06:10:05.098Z,21.25
2017-12-10T06:11:05.097Z,21.24
2017-12-10T06:12:05.102Z,21.32
2017-12-10T06:13:05.102Z,21.29
2017-12-10T06:14:05.101Z,21.31
2017-12-10T06:15:05.102Z,21.31
2017-12-10T06:16:05.103Z,21.25
2017-12-10T06:17:05.107Z,21.34
2017-12-10T06:18:05.107Z,21.29
2017-12-10T06:19:05.114Z,21.29
2017-12-10T06:20:05.118Z,21.31
2017-12-10T06:21:05.115Z,21.31
2017-12-10T06:22:05.110Z,21.25
2017-12-10T06:23:05.111Z,21.25
2017-12-10T06:24:05.115Z,21.34
2017-12-10T06:25:05.120Z,21.27
2017-12-10T06:26:05.120Z,21.31
2017-12-10T06:27:05.120Z,21.35
2017-12-10T06:28:05.120Z,21.29
2017-12-10T06:29:05.122Z,21.37
2017-12-10T06:30:05.125Z,21.35
2017-12-10T06:31:05.125Z,21.34
2017-12-10T06:32:05.125Z,21.34
2017-12-10T06:33:05.131Z,21.40
2017-12-10T06:34:05.129Z,21.35
2017-12-10T06:35:05.129Z,21.31
2017-12-10T06:36:05.130Z,21.37
2017-12-10T06:37:05.131Z,21.35
2017-12-10T06:38:05.132Z,21.32
2017-12-10T06:39:05.135Z,21.31
2017-12-10T06:40:05.135Z,21.32
2017-12-10T06:41:05.138Z,21.38
2017-12-10T06:42:05.139Z,21.32
2017-12-10T06:43:05.139Z,21.37
2017-12-10T06:44:05.139Z,21.31
2017-12-10T06:45:05.162Z,21.35
2017-12-10T06:46:05.144Z,21.32
2017-12-10T06:47:05.144Z,21.35
2017-12-10T06:48:05.146Z,21.38
2017-12-10T06:49:05.148Z,21.35
2017-12-10T06:50:05.148Z,21.40
2017-12-10T06:51:05.208Z,21.34
2017-12-10T06:52:05.152Z,21.37
2017-12-10T06:53:05.153Z,21.35
2017-12-10T06:54:05.153Z,21.38
2017-12-10T06:55:05.165Z,21.32
2017-12-10T06:56:05.157Z,21.35
2017-12-10T06:57:05.159Z,21.35
2017-12-10T06:58:05.163Z,21.31
2017-12-10T06:59:05.160Z,21.37
2017-12-10T07:00:05.162Z,21.32
2017-12-10T07:01:05.164Z,21.37
2017-12-10T07:02:05.164Z,21.31
2017-12-10T07:03:05.166Z,21.38
2017-12-10T07:04:05.170Z,21.34
2017-12-10T07:05:05.174Z,21.37
2017-12-10T07:06:05.183Z,21.42
2017-12-10T07:07:05.177Z,21.38
2017-12-10T07:08:05.178Z,21.31
2017-12-10T07:09:05.180Z,21.38
2017-12-10T07:10:05.181Z,21.35
2017-12-10T07:11:05.178Z,21.35
2017-12-10T07:12:05.179Z,21.38
2017-12-10T07:13:05.180Z,21.35
2017-12-10T07:14:05.181Z,21.32
2017-12-10T07:15:05.182Z,21.34
2017-12-10T07:16:05.183Z,21.38
2017-12-10T07:17:05.185Z,21.37
2017-12-10T07:18:05.186Z,21.40
2017-12-10T07:19:05.188Z,21.38
2017-12-10T07:20:05.189Z,21.34
2017-12-10T07:21:05.189Z,21.35
2017-12-10T07:22:05.192Z,21.35
2017-12-10T07:23:05.193Z,21.38
2017-12-10T07:24:05.193Z,21.38
2017-12-10T07:25:05.196Z,21.38
2017-12-10T07:26:05.196Z,21.43
2017-12-10T07:27:05.198Z,21.40
2017-12-10T07:28:05.199Z,21.42
2017-12-10T07:29:05.201Z,21.35
2017-12-10T07:30:05.202Z,21.38
2017-12-10T07:31:05.203Z,21.40
2017-12-10T07:32:05.204Z,21.37
2017-12-10T07:33:05.207Z,21.37
2017-12-10T07:34:05.208Z,21.35
2017-12-10T07:35:05.211Z,21.40
2017-12-10T07:36:05.208Z,21.35
2017-12-10T07:37:05.212Z,21.31
2017-12-10T07:38:05.211Z,21.35
2017-12-10T07:39:05.213Z,21.32
2017-12-10T07:40:05.214Z,21.40
2017-12-10T07:41:05.240Z,21.34
2017-12-10T07:42:05.223Z,21.43
2017-12-10T07:43:05.221Z,21.43
2017-12-10T07:44:05.220Z,21.44
2017-12-10T07:45:05.229Z,21.40
2017-12-10T07:46:05.223Z,21.37
2017-12-10T07:47:05.287Z,21.42
2017-12-10T07:48:05.226Z,21.32
2017-12-10T07:49:05.228Z,21.35
2017-12-10T07:50:05.228Z,21.37
2017-12-10T07:51:05.245Z,21.34
2017-12-10T07:52:05.231Z,21.38
2017-12-10T07:53:05.233Z,21.38
2017-12-10T07:54:05.233Z,21.37
2017-12-10T07:55:05.235Z,21.38
2017-12-10T07:56:05.282Z,21.29
2017-12-10T07:57:05.238Z,21.35
2017-12-10T07:58:05.239Z,21.37
2017-12-10T07:59:05.240Z,21.49
2017-12-10T08:00:05.243Z,21.34
2017-12-10T08:01:05.244Z,21.37
2017-12-10T08:02:05.281Z,21.43
2017-12-10T08:03:05.246Z,21.46
2017-12-10T08:04:05.270Z,21.43
2017-12-10T08:05:05.274Z,21.34
2017-12-10T08:06:05.250Z,21.34
2017-12-10T08:07:05.254Z,21.37
2017-12-10T08:08:05.253Z,21.35
2017-12-10T08:09:05.255Z,21.32
2017-12-10T08:10:05.254Z,21.34
2017-12-10T08:11:05.302Z,21.43
2017-12-10T08:12:05.259Z,21.37
2017-12-10T08:13:05.258Z,21.43
2017-12-10T08:14:05.260Z,21.31
2017-12-10T08:15:05.263Z,21.32
2017-12-10T08:16:05.264Z,21.35
2017-12-10T08:17:05.272Z,21.38
2017-12-10T08:18:05.267Z,21.52
2017-12-10T08:19:05.268Z,21.38
2017-12-10T08:20:05.267Z,21.46
2017-12-10T08:21:05.269Z,21.44
2017-12-10T08:22:05.272Z,21.34
2017-12-10T08:23:05.275Z,21.49
2017-12-10T08:24:05.275Z,21.42
2017-12-10T08:25:05.282Z,21.44
2017-12-10T08:26:05.284Z,21.49
2017-12-10T08:27:05.283Z,21.43
2017-12-10T08:28:05.292Z,21.49
2017-12-10T08:29:05.287Z,21.35
2017-12-10T08:30:05.290Z,21.38
2017-12-10T08:31:05.286Z,21.47
2017-12-10T08:32:05.286Z,21.44
2017-12-10T08:33:05.290Z,21.44
2017-12-10T08:34:05.290Z,21.46
2017-12-10T08:35:05.291Z,21.49
2017-12-10T08:36:05.292Z,21.49
2017-12-10T08:37:05.294Z,21.47
2017-12-10T08:38:05.295Z,21.44
2017-12-10T08:39:05.296Z,21.46
2017-12-10T08:40:05.300Z,21.40
2017-12-10T08:41:05.305Z,21.52
2017-12-10T08:42:05.300Z,21.49
2017-12-10T08:43:05.302Z,21.50
2017-12-10T08:44:05.303Z,21.42
2017-12-10T08:45:05.351Z,21.49
2017-12-10T08:46:05.312Z,21.37
2017-12-10T08:47:05.308Z,21.43
2017-12-10T08:48:05.316Z,21.44
2017-12-10T08:49:05.311Z,21.43
2017-12-10T08:50:05.311Z,21.52
2017-12-10T08:51:05.313Z,21.40
2017-12-10T08:52:05.315Z,21.42
2017-12-10T08:53:05.318Z,21.44
2017-12-10T08:54:05.317Z,21.53
2017-12-10T08:55:05.319Z,21.46
2017-12-10T08:56:05.322Z,21.44
2017-12-10T08:57:05.327Z,21.50
2017-12-10T08:58:05.324Z,21.50
2017-12-10T08:59:05.325Z,21.46
2017-12-10T09:00:05.327Z,21.49
2017-12-10T09:01:05.329Z,21.47
2017-12-10T09:02:05.337Z,21.40
2017-12-10T09:03:05.331Z,21.46
2017-12-10T09:04:05.341Z,21.49
2017-12-10T09:05:05.334Z,21.49
2017-12-10T09:06:05.334Z,21.53
2017-12-10T09:07:05.336Z,21.47
2017-12-10T09:08:05.339Z,21.46
2017-12-10T09:09:05.347Z,21.49
2017-12-10T09:10:05.341Z,21.52
2017-12-10T09:11:05.342Z,21.47
2017-12-10T09:12:05.350Z,21.44
2017-12-10T09:13:05.351Z,21.49
2017-12-10T09:14:05.355Z,21.44
2017-12-10T09:15:05.353Z,21.47
2017-12-10T09:16:05.355Z,21.46
2017-12-10T09:17:05.365Z,21.49
2017-12-10T09:18:05.353Z,21.44
2017-12-10T09:19:05.358Z,21.50
2017-12-10T09:20:05.356Z,21.47
2017-12-10T09:21:05.407Z,21.50
2017-12-10T09:22:05.359Z,21.43
2017-12-10T09:23:05.362Z,21.46
2017-12-10T09:24:05.362Z,21.47
2017-12-10T09:25:05.364Z,21.49
2017-12-10T09:26:05.370Z,21.53
2017-12-10T09:27:05.367Z,21.46
2017-12-10T09:28:05.368Z,21.50
2017-12-10T09:29:05.370Z,21.47
2017-12-10T09:30:05.371Z,21.56
2017-12-10T09:31:05.372Z,21.47
2017-12-10T09:32:05.374Z,21.52
2017-12-10T09:33:05.376Z,21.53
2017-12-10T09:34:05.377Z,21.49
2017-12-10T09:35:05.378Z,21.52
2017-12-10T09:36:05.381Z,21.53
2017-12-10T09:37:05.385Z,21.52
2017-12-10T09:38:05.382Z,21.50
2017-12-10T09:39:05.384Z,21.50
2017-12-10T09:40:05.385Z,21.53
2017-12-10T09:41:05.398Z,21.43
2017-12-10T09:42:05.388Z,21.58
2017-12-10T09:43:05.390Z,21.53
2017-12-10T09:44:05.393Z,21.47
2017-12-10T09:45:05.395Z,21.50
2017-12-10T09:46:05.395Z,21.52
2017-12-10T09:47:05.403Z,21.58
2017-12-10T09:48:05.399Z,21.54
2017-12-10T09:49:05.402Z,21.54
2017-12-10T09:50:05.402Z,21.53
2017-12-10T09:51:05.402Z,21.52
2017-12-10T09:52:05.403Z,21.53
2017-12-10T09:53:05.405Z,21.59
2017-12-10T09:54:05.413Z,21.47
2017-12-10T09:55:05.408Z,21.58
2017-12-10T09:56:05.409Z,21.53
2017-12-10T09:57:05.412Z,21.53
2017-12-10T09:58:05.415Z,21.49
2017-12-10T09:59:05.414Z,21.59
2017-12-10T10:00:05.416Z,21.54
2017-12-10T10:01:05.418Z,21.59
2017-12-10T10:02:05.419Z,21.53
2017-12-10T10:03:05.421Z,21.58
2017-12-10T10:04:05.423Z,21.56
2017-12-10T10:05:05.424Z,21.56
2017-12-10T10:06:05.425Z,21.52
2017-12-10T10:07:05.427Z,21.53
2017-12-10T10:08:05.429Z,21.50
2017-12-10T10:09:05.436Z,21.54
2017-12-10T10:10:05.431Z,21.61
2017-12-10T10:11:05.433Z,21.56
2017-12-10T10:12:05.434Z,21.54
2017-12-10T10:13:05.436Z,21.58
2017-12-10T10:14:05.436Z,21.56
2017-12-10T10:15:05.437Z,21.50
2017-12-10T10:16:05.440Z,21.59
2017-12-10T10:17:05.442Z,21.56
2017-12-10T10:18:05.446Z,21.52
2017-12-10T10:19:05.453Z,21.53
2017-12-10T10:20:05.456Z,21.58
2017-12-10T10:21:05.541Z,21.54
2017-12-10T10:22:05.456Z,21.54
2017-12-10T10:23:05.454Z,21.58
2017-12-10T10:24:05.456Z,21.49
2017-12-10T10:25:05.484Z,21.56
2017-12-10T10:26:05.455Z,21.52
2017-12-10T10:27:05.459Z,21.53
2017-12-10T10:28:05.459Z,21.54
2017-12-10T10:29:05.462Z,21.54
2017-12-10T10:30:05.461Z,21.58
2017-12-10T10:31:05.463Z,21.54
2017-12-10T10:32:05.463Z,21.54
2017-12-10T10:33:05.469Z,21.58
2017-12-10T10:34:05.468Z,21.53
2017-12-10T10:35:05.470Z,21.52
2017-12-10T10:36:05.522Z,21.56
2017-12-10T10:37:05.471Z,21.58
2017-12-10T10:38:05.473Z,21.54
2017-12-10T10:39:05.475Z,21.52
2017-12-10T10:40:05.478Z,21.62
2017-12-10T10:41:05.478Z,21.53
2017-12-10T10:42:05.481Z,21.59
2017-12-10T10:43:05.482Z,21.54
2017-12-10T10:44:05.484Z,21.52
2017-12-10T10:45:05.485Z,21.59
2017-12-10T10:46:05.485Z,21.61
2017-12-10T10:47:05.490Z,21.54
2017-12-10T10:48:05.490Z,21.53
2017-12-10T10:49:05.491Z,21.62
2017-12-10T10:50:05.492Z,21.52
2017-12-10T10:51:05.505Z,21.50
2017-12-10T10:52:05.496Z,21.61
2017-12-10T10:53:05.498Z,21.56
2017-12-10T10:54:05.499Z,21.58
2017-12-10T10:55:05.501Z,21.53
2017-12-10T10:56:05.572Z,21.58
2017-12-10T10:57:05.503Z,21.53
2017-12-10T10:58:05.504Z,21.56
2017-12-10T10:59:05.506Z,21.49
2017-12-10T11:00:05.507Z,21.61
2017-12-10T11:01:05.510Z,21.58
2017-12-10T11:02:05.510Z,21.53
2017-12-10T11:03:05.512Z,21.59
2017-12-10T11:04:05.514Z,21.59
2017-12-10T11:05:05.515Z,21.49
2017-12-10T11:06:05.518Z,21.52
2017-12-10T11:07:05.519Z,21.54
2017-12-10T11:08:05.521Z,21.56
2017-12-10T11:09:05.522Z,21.50
2017-12-10T11:10:05.525Z,21.58
2017-12-10T11:11:05.574Z,21.58
2017-12-10T11:12:05.534Z,21.49
2017-12-10T11:13:05.528Z,21.50
2017-12-10T11:14:05.529Z,21.61
2017-12-10T11:15:05.543Z,21.53
2017-12-10T11:16:05.534Z,21.54
2017-12-10T11:17:05.534Z,21.58
2017-12-10T11:18:05.536Z,21.53
2017-12-10T11:19:05.539Z,21.50
2017-12-10T11:20:05.540Z,21.54
2017-12-10T11:21:05.539Z,21.52
2017-12-10T11:22:05.541Z,21.54
2017-12-10T11:23:05.549Z,21.54
2017-12-10T11:24:05.544Z,21.61
2017-12-10T11:25:05.572Z,21.54
2017-12-10T11:26:05.547Z,21.50
2017-12-10T11:27:05.550Z,21.54
2017-12-10T11:28:05.550Z,21.54
2017-12-10T11:29:05.553Z,21.50
2017-12-10T11:30:05.555Z,21.50
2017-12-10T11:31:05.555Z,21.50
2017-12-10T11:32:05.556Z,21.50
2017-12-10T11:33:05.560Z,21.54
2017-12-10T11:34:05.560Z,21.61
2017-12-10T11:35:05.560Z,21.56
2017-12-10T11:36:05.561Z,21.53
2017-12-10T11:37:05.565Z,21.65
2017-12-10T11:38:05.566Z,21.65
2017-12-10T11:39:05.567Z,21.56
2017-12-10T11:40:05.569Z,21.49
2017-12-10T11:41:05.570Z,21.47
2017-12-10T11:42:05.572Z,21.62
2017-12-10T11:43:05.574Z,21.53
2017-12-10T11:44:05.576Z,21.68
2017-12-10T11:45:05.588Z,21.56
2017-12-10T11:46:05.580Z,21.54
2017-12-10T11:47:05.579Z,21.53
2017-12-10T11:48:05.582Z,21.61
2017-12-10T11:49:05.585Z,21.52
2017-12-10T11:50:05.669Z,21.65
2017-12-10T11:51:05.586Z,21.50
2017-12-10T11:52:05.588Z,21.53
2017-12-10T11:53:05.589Z,21.54
2017-12-10T11:54:05.590Z,21.64
2017-12-10T11:55:05.613Z,21.52
2017-12-10T11:56:05.595Z,21.52
2017-12-10T11:57:05.596Z,21.53
2017-12-10T11:58:05.597Z,21.56
2017-12-10T11:59:05.598Z,21.68
2017-12-10T12:00:05.600Z,21.65
2017-12-10T12:01:05.616Z,21.54
2017-12-10T12:02:05.603Z,21.68
2017-12-10T12:03:05.605Z,21.64
2017-12-10T12:04:05.607Z,21.62
2017-12-10T12:05:05.608Z,21.59
2017-12-10T12:06:05.609Z,21.61
2017-12-10T12:07:05.611Z,21.69
2017-12-10T12:08:05.615Z,21.53
2017-12-10T12:09:05.614Z,21.68
2017-12-10T12:10:05.624Z,21.62
2017-12-10T12:11:05.617Z,21.61
2017-12-10T12:12:05.623Z,21.54
2017-12-10T12:13:05.626Z,21.72
2017-12-10T12:14:05.622Z,21.62
2017-12-10T12:15:05.624Z,21.59
2017-12-10T12:16:05.626Z,21.53
2017-12-10T12:17:05.627Z,21.67
2017-12-10T12:18:05.634Z,21.68
2017-12-10T12:19:05.630Z,21.59
2017-12-10T12:20:05.632Z,21.69
2017-12-10T12:21:05.635Z,21.64
2017-12-10T12:22:05.643Z,21.56
2017-12-10T12:23:05.636Z,21.59
2017-12-10T12:24:05.639Z,21.62
2017-12-10T12:25:05.640Z,21.56
2017-12-10T12:26:05.639Z,21.61
2017-12-10T12:27:05.643Z,21.61
2017-12-10T12:28:05.644Z,21.59
2017-12-10T12:29:05.647Z,21.58
2017-12-10T12:30:05.647Z,21.64
2017-12-10T12:31:05.650Z,21.58
2017-12-10T12:32:05.651Z,21.61
2017-12-10T12:33:05.653Z,21.61
2017-12-10T12:34:05.653Z,21.61
2017-12-10T12:35:05.656Z,21.62
2017-12-10T12:36:05.669Z,21.64
2017-12-10T12:37:05.661Z,21.61
2017-12-10T12:38:05.661Z,21.68
2017-12-10T12:39:05.662Z,21.62
2017-12-10T12:40:05.725Z,21.59
2017-12-10T12:41:05.697Z,21.61
2017-12-10T12:42:05.666Z,21.58
2017-12-10T12:43:05.668Z,21.58
2017-12-10T12:44:05.670Z,21.59
2017-12-10T12:45:05.721Z,21.64
2017-12-10T12:46:05.678Z,21.61
2017-12-10T12:47:05.681Z,21.65
2017-12-10T12:48:05.677Z,21.58
2017-12-10T12:49:05.679Z,21.64
2017-12-10T12:50:05.679Z,21.64
2017-12-10T12:51:05.681Z,21.59
2017-12-10T12:52:05.681Z,21.67